Time;durP1;ratioP1;P1;durP2;ratioP2;P2;SDS_P1;SDS_P2;PMS_P1;PMS_P2;Temp;Humidity;BMP_temperature;BMP_pressure;BME280_temperature;BME280_humidity;BME280_pressure;Samples;Min_cycle;Max_cycle;Signal;HPM_P1;HPM_P2
2021/12/22 00:00:10;;;;;;;19.90;11.35;;;-1.10;99.90;;;;;;5104044;28;20038;-63
2021/12/22 00:02:46;;;;;;;19.33;12.85;;;-1.10;99.90;;;;;;5097519;28;20122;-63
2021/12/22 00:05:31;;;;;;;18.50;11.10;;;-1.10;99.90;;;;;;5130378;27;20043;-63
2021/12/22 00:07:58;;;;;;;21.10;12.68;;;-1.10;99.90;;;;;;5099823;28;20047;-63
2021/12/22 00:10:24;;;;;;;19.65;11.88;;;-1.20;99.90;;;;;;5127676;27;20048;-63
2021/12/22 00:12:51;;;;;;;19.63;11.77;;;-1.10;99.90;;;;;;5095789;28;20051;-63
2021/12/22 00:15:17;;;;;;;21.33;12.60;;;-1.30;99.90;;;;;;5115906;28;20128;-63
2021/12/22 00:17:43;;;;;;;16.88;12.00;;;-1.30;99.90;;;;;;5099772;28;20494;-63
2021/12/22 00:20:11;;;;;;;19.05;12.57;;;-1.30;99.90;;;;;;5098763;28;20047;-63
2021/12/22 00:22:36;;;;;;;16.10;12.75;;;-1.30;99.90;;;;;;5097727;28;20051;-63
2021/12/22 00:25:03;;;;;;;20.13;12.50;;;-1.10;99.90;;;;;;5128568;27;20044;-63
2021/12/22 00:27:29;;;;;;;21.02;12.48;;;-1.40;99.90;;;;;;5095566;28;20032;-63
2021/12/22 00:29:55;;;;;;;18.52;11.55;;;-1.30;99.90;;;;;;5093782;28;20051;-63
2021/12/22 00:32:22;;;;;;;19.88;11.50;;;-1.30;99.90;;;;;;5097995;28;20043;-63
2021/12/22 00:34:52;;;;;;;19.77;12.63;;;-1.40;99.90;;;;;;5092800;28;20035;-63
2021/12/22 00:37:26;;;;;;;23.48;12.80;;;-1.30;99.90;;;;;;5115886;27;20038;-63
2021/12/22 00:39:53;;;;;;;18.95;11.70;;;-1.40;99.90;;;;;;5099633;28;20274;-63
2021/12/22 00:42:20;;;;;;;17.42;12.32;;;-1.40;99.90;;;;;;5097978;28;20047;-63
2021/12/22 00:44:49;;;;;;;16.58;11.05;;;-1.50;99.90;;;;;;5105035;27;20398;-63
2021/12/22 00:47:16;;;;;;;20.00;11.90;;;-1.50;99.90;;;;;;5128949;27;20075;-63
2021/12/22 00:49:42;;;;;;;16.48;10.75;;;-1.60;99.90;;;;;;5129501;27;20036;-63
2021/12/22 00:52:08;;;;;;;19.92;12.02;;;-1.60;99.90;;;;;;5099361;27;20070;-63
2021/12/22 00:54:33;;;;;;;14.73;10.90;;;-1.60;99.90;;;;;;5101937;28;20032;-63
2021/12/22 00:57:05;;;;;;;19.27;12.13;;;-1.70;99.90;;;;;;5100428;28;20043;-63
2021/12/22 00:59:32;;;;;;;17.20;11.13;;;-1.70;99.90;;;;;;5100136;27;20047;-63
2021/12/22 01:01:58;;;;;;;16.45;11.82;;;-1.70;99.90;;;;;;5101626;27;20035;-63
2021/12/22 01:04:24;;;;;;;17.42;11.38;;;-1.70;99.90;;;;;;5099866;28;20070;-63
2021/12/22 01:06:49;;;;;;;18.77;13.25;;;-1.70;99.90;;;;;;5099154;28;20077;-63
2021/12/22 01:09:15;;;;;;;17.30;12.73;;;-1.80;99.90;;;;;;5096182;27;20062;-63
2021/12/22 01:11:41;;;;;;;18.98;11.85;;;-1.80;99.90;;;;;;5099034;28;20394;-63
2021/12/22 01:14:06;;;;;;;16.35;11.00;;;-1.80;99.90;;;;;;5096535;27;21043;-63
2021/12/22 01:16:33;;;;;;;16.95;11.07;;;-1.80;99.90;;;;;;5101185;28;20042;-63
2021/12/22 01:19:02;;;;;;;19.27;12.02;;;-1.80;99.90;;;;;;5096885;28;20085;-63
2021/12/22 01:21:45;;;;;;;20.60;12.98;;;-1.90;99.90;;;;;;5100411;28;20166;-63
2021/12/22 01:24:21;;;;;;;16.67;13.15;;;-1.90;99.90;;;;;;5098843;28;20619;-63
2021/12/22 01:26:52;;;;;;;19.90;13.45;;;-1.60;99.90;;;;;;5100745;27;20110;-63
2021/12/22 01:29:19;;;;;;;16.45;10.60;;;-1.90;99.90;;;;;;5097354;28;20107;-63
2021/12/22 01:31:44;;;;;;;20.00;12.85;;;-1.90;99.90;;;;;;5097296;28;20074;-63
2021/12/22 01:34:10;;;;;;;20.85;12.88;;;-1.90;99.90;;;;;;5097296;27;20151;-63
2021/12/22 01:36:37;;;;;;;17.80;12.55;;;-2.00;99.90;;;;;;5096557;28;20028;-63
2021/12/22 01:39:06;;;;;;;15.30;11.43;;;-1.90;99.90;;;;;;5094887;28;20040;-63
2021/12/22 01:41:32;;;;;;;19.40;11.93;;;-2.00;99.90;;;;;;5097831;27;20040;-63
2021/12/22 01:43:58;;;;;;;24.52;13.25;;;-2.00;99.90;;;;;;5098517;28;20042;-63
2021/12/22 01:49:09;;;;;;;20.63;14.77;;;-2.00;99.90;;;;;;5098985;28;20038;-63
2021/12/22 01:49:50;;;;;;;22.38;13.45;;;-2.00;99.90;;;;;;5099066;28;20040;-63
2021/12/22 01:52:17;;;;;;;17.10;12.48;;;-2.00;99.90;;;;;;5096297;28;20066;-63
2021/12/22 01:55:03;;;;;;;19.45;12.95;;;-2.10;99.90;;;;;;5095658;28;20040;-63
2021/12/22 01:57:29;;;;;;;15.50;11.55;;;-2.10;99.90;;;;;;5101562;28;20490;-63
2021/12/22 01:59:55;;;;;;;14.82;10.77;;;-2.10;99.90;;;;;;5094831;28;20032;-63
2021/12/22 02:02:20;;;;;;;18.80;12.40;;;-2.10;99.90;;;;;;5098537;28;20398;-63
2021/12/22 02:04:46;;;;;;;19.80;14.25;;;-2.10;99.90;;;;;;5095789;27;20050;-63
2021/12/22 02:07:12;;;;;;;17.45;11.40;;;-2.20;99.90;;;;;;5096837;27;20039;-63
2021/12/22 02:12:19;;;;;;;19.67;12.43;;;-2.20;99.90;;;;;;5100287;28;20101;-63
2021/12/22 02:14:46;;;;;;;15.45;11.27;;;-2.20;99.90;;;;;;5096656;28;20036;-63
2021/12/22 02:17:12;;;;;;;19.83;12.02;;;-1.90;99.90;;;;;;5095887;28;20046;-63
2021/12/22 02:19:42;;;;;;;17.70;12.00;;;-2.20;99.90;;;;;;5095518;27;20043;-63
2021/12/22 02:22:12;;;;;;;17.25;12.38;;;-2.30;99.90;;;;;;5096516;28;20043;-63
2021/12/22 02:24:38;;;;;;;18.85;12.43;;;-2.20;99.90;;;;;;5098253;28;20044;-63
2021/12/22 02:27:14;;;;;;;20.15;12.38;;;-2.20;99.90;;;;;;5097566;27;20032;-63
2021/12/22 02:29:41;;;;;;;;;;;-2.20;99.90;;;;;;5096036;27;20036;-63
2021/12/22 02:32:33;;;;;;;17.05;11.88;;;-2.30;99.90;;;;;;5100306;27;19916;-63
2021/12/22 02:35:01;;;;;;;19.52;12.68;;;-2.20;99.90;;;;;;5100361;28;20051;-63
2021/12/22 02:37:27;;;;;;;19.42;11.35;;;-2.20;99.90;;;;;;5131835;27;20043;-63
2021/12/22 02:40:00;;;;;;;20.40;12.85;;;-2.20;99.90;;;;;;5099742;28;20043;-63
2021/12/22 02:42:33;;;;;;;16.30;12.52;;;-2.20;99.90;;;;;;5100171;28;20510;-63
2021/12/22 02:45:17;;;;;;;18.88;12.93;;;-2.10;99.90;;;;;;5102068;28;20031;-63
2021/12/22 02:47:44;;;;;;;22.55;13.35;;;-2.10;99.90;;;;;;5101163;27;20517;-63
2021/12/22 02:50:11;;;;;;;22.52;12.85;;;-2.10;99.90;;;;;;5099245;28;20816;-63
2021/12/22 02:52:59;;;;;;;16.55;12.13;;;-2.10;99.90;;;;;;5103625;28;20084;-63
2021/12/22 02:55:30;;;;;;;19.00;12.30;;;-2.00;99.90;;;;;;5102369;28;20057;-63
2021/12/22 02:58:00;;;;;;;16.85;11.57;;;-2.20;99.90;;;;;;5104168;28;20123;-63
2021/12/22 03:05:24;;;;;;;17.33;11.60;;;-2.30;99.90;;;;;;5102761;27;20043;-63
2021/12/22 03:07:50;;;;;;;16.80;11.15;;;-2.30;99.90;;;;;;5103842;27;20093;-63
2021/12/22 03:10:18;;;;;;;16.15;10.73;;;-2.30;99.90;;;;;;5100200;28;20040;-63
2021/12/22 03:12:52;;;;;;;19.98;11.18;;;-2.30;99.90;;;;;;5132124;27;20118;-63
2021/12/22 03:15:18;;;;;;;15.75;10.55;;;-2.30;99.90;;;;;;5133663;27;20378;-63
2021/12/22 03:17:44;;;;;;;18.83;11.60;;;-2.30;99.90;;;;;;5102770;27;20631;-63
2021/12/22 03:20:13;;;;;;;15.48;10.57;;;-2.40;99.90;;;;;;5100241;28;20059;-63
2021/12/22 03:22:42;;;;;;;18.52;10.90;;;-2.40;99.90;;;;;;5101599;28;20052;-63
2021/12/22 03:25:14;;;;;;;15.32;10.50;;;-2.40;99.90;;;;;;5128637;27;20052;-63
2021/12/22 03:27:43;;;;;;;16.17;9.55;;;-2.50;99.90;;;;;;5131737;27;20051;-63
2021/12/22 03:30:10;;;;;;;14.45;9.70;;;-2.50;99.90;;;;;;5100104;28;20042;-63
2021/12/22 03:32:36;;;;;;;19.83;10.48;;;-2.50;99.90;;;;;;5083429;28;20047;-63
2021/12/22 03:35:01;;;;;;;18.52;10.38;;;-2.20;99.90;;;;;;5100565;28;21282;-63
2021/12/22 03:37:27;;;;;;;15.07;9.82;;;-2.50;99.90;;;;;;5097527;27;20047;-63
2021/12/22 03:39:53;;;;;;;12.35;9.40;;;-2.60;99.90;;;;;;5099982;28;20043;-63
2021/12/22 03:42:18;;;;;;;13.93;10.20;;;-2.60;99.90;;;;;;5130146;27;20038;-63
2021/12/22 03:44:45;;;;;;;17.77;11.70;;;-2.60;99.90;;;;;;5103040;27;20039;-63
2021/12/22 03:47:10;;;;;;;13.27;9.98;;;-2.60;99.90;;;;;;5099225;27;20040;-63
2021/12/22 03:49:36;;;;;;;14.98;11.45;;;-2.50;99.90;;;;;;5131495;27;20040;-63
2021/12/22 03:52:03;;;;;;;16.27;11.80;;;-2.50;99.90;;;;;;5098023;28;20046;-63
2021/12/22 03:54:29;;;;;;;16.73;11.98;;;-2.50;99.90;;;;;;5120903;27;20058;-63
2021/12/22 03:56:54;;;;;;;14.75;10.38;;;-2.50;99.90;;;;;;5100171;28;20481;-63
2021/12/22 03:59:20;;;;;;;15.48;11.45;;;-2.50;99.90;;;;;;5128393;27;20485;-63
2021/12/22 04:01:47;;;;;;;15.80;11.82;;;-2.50;99.90;;;;;;5105606;27;20062;-63
2021/12/22 04:04:16;;;;;;;16.58;11.57;;;-2.50;99.90;;;;;;5113479;27;20051;-63
2021/12/22 04:06:44;;;;;;;16.63;11.63;;;-2.50;99.90;;;;;;5084059;27;21818;-63
2021/12/22 04:09:10;;;;;;;18.77;12.48;;;-2.60;99.90;;;;;;5085990;27;20139;-63
2021/12/22 04:11:36;;;;;;;17.50;11.70;;;-2.60;99.90;;;;;;5087512;27;20057;-63
2021/12/22 04:14:01;;;;;;;18.83;11.38;;;-2.70;99.90;;;;;;5090617;28;20394;-63
2021/12/22 04:16:27;;;;;;;19.85;12.35;;;-2.60;99.90;;;;;;5096902;28;20036;-63
2021/12/22 04:18:53;;;;;;;16.80;11.80;;;-2.60;99.90;;;;;;5098700;28;20623;-63
2021/12/22 04:21:19;;;;;;;18.75;12.50;;;-2.60;99.90;;;;;;5099698;28;20039;-63
2021/12/22 04:23:45;;;;;;;18.10;12.05;;;-2.70;99.90;;;;;;5102418;28;20498;-63
2021/12/22 04:26:12;;;;;;;14.48;11.00;;;-2.60;99.90;;;;;;5100577;28;20036;-63
2021/12/22 04:28:39;;;;;;;18.20;12.25;;;-2.60;99.90;;;;;;5100771;28;20043;-63
2021/12/22 04:31:05;;;;;;;17.23;11.25;;;-2.60;99.90;;;;;;5102529;28;20043;-63
2021/12/22 04:33:31;;;;;;;20.25;12.48;;;-2.70;99.90;;;;;;5101748;28;20101;-63
2021/12/22 04:35:56;;;;;;;19.17;12.48;;;-2.60;99.90;;;;;;5102770;28;20084;-63
2021/12/22 04:38:24;;;;;;;17.85;12.38;;;-2.70;99.90;;;;;;5102646;28;20040;-63
2021/12/22 04:40:50;;;;;;;18.52;12.18;;;-2.70;99.90;;;;;;5100170;28;20434;-63
2021/12/22 04:43:16;;;;;;;19.60;11.88;;;-2.70;99.90;;;;;;5098851;28;20047;-63
2021/12/22 04:45:43;;;;;;;16.45;11.77;;;-2.60;99.90;;;;;;5101776;28;20043;-63
2021/12/22 04:48:09;;;;;;;16.90;12.25;;;-2.60;99.90;;;;;;5101660;28;20036;-63
2021/12/22 04:50:35;;;;;;;16.35;11.40;;;-2.70;99.90;;;;;;5101247;28;20072;-63
2021/12/22 04:53:11;;;;;;;16.20;10.73;;;-2.70;99.90;;;;;;5096737;28;20593;-63
2021/12/22 04:55:37;;;;;;;16.65;10.23;;;-2.70;99.90;;;;;;5100759;28;20036;-63
2021/12/22 04:58:03;;;;;;;14.57;11.60;;;-2.70;99.90;;;;;;5099217;28;21618;-63
2021/12/22 05:00:31;;;;;;;19.15;11.00;;;-2.70;99.90;;;;;;5102287;28;20032;-63
2021/12/22 05:02:58;;;;;;;14.52;11.32;;;-2.80;99.90;;;;;;5102452;28;20040;-63
2021/12/22 05:05:24;;;;;;;15.88;11.23;;;-2.80;99.90;;;;;;5097929;28;20035;-63
2021/12/22 05:07:50;;;;;;;15.48;10.35;;;-2.80;99.90;;;;;;5121460;27;21720;-63
2021/12/22 05:10:16;;;;;;;13.52;10.82;;;-2.90;99.90;;;;;;5090162;28;20058;-63
2021/12/22 05:12:43;;;;;;;20.42;11.73;;;-2.90;99.90;;;;;;5089699;28;20486;-63
2021/12/22 05:15:10;;;;;;;16.48;12.07;;;-2.90;99.90;;;;;;5092465;28;20145;-63
2021/12/22 05:20:12;;;;;;;14.05;11.48;;;-2.70;99.90;;;;;;5092344;28;20087;-63
2021/12/22 05:22:38;;;;;;;22.17;12.18;;;-2.90;99.90;;;;;;5097202;28;20039;-63
2021/12/22 05:25:06;;;;;;;15.30;11.68;;;-2.90;99.90;;;;;;5098323;28;20547;-63
2021/12/22 05:27:32;;;;;;;16.67;10.93;;;-2.80;99.90;;;;;;5095019;28;20118;-63
2021/12/22 05:29:58;;;;;;;16.52;11.25;;;-2.90;99.90;;;;;;5096595;28;20138;-63
2021/12/22 05:32:30;;;;;;;17.73;11.07;;;-2.90;99.90;;;;;;5098133;28;20043;-63
2021/12/22 05:35:00;;;;;;;16.75;11.38;;;-2.90;99.90;;;;;;5100415;28;20035;-63
2021/12/22 05:37:26;;;;;;;19.52;12.00;;;-2.90;99.90;;;;;;5094648;28;20039;-63
2021/12/22 05:39:52;;;;;;;17.27;12.38;;;-2.80;99.90;;;;;;5092611;27;20036;-63
2021/12/22 05:42:19;;;;;;;19.15;11.88;;;-2.80;99.90;;;;;;5099109;28;20035;-63
2021/12/22 05:44:45;;;;;;;21.33;11.93;;;-2.90;99.90;;;;;;5084116;27;20040;-63
2021/12/22 05:47:10;;;;;;;17.33;12.48;;;-2.90;99.90;;;;;;5095085;28;20035;-63
2021/12/22 05:49:36;;;;;;;20.67;13.40;;;-2.80;99.90;;;;;;5095632;28;20477;-63
2021/12/22 05:52:03;;;;;;;23.02;13.73;;;-2.90;99.90;;;;;;5095221;28;20042;-63
2021/12/22 05:54:29;;;;;;;18.85;12.70;;;-2.90;99.90;;;;;;5111191;27;20040;-63
2021/12/22 05:56:54;;;;;;;23.35;12.88;;;-2.80;99.90;;;;;;5096294;28;20135;-63
2021/12/22 05:59:20;;;;;;;21.10;12.75;;;-2.90;99.90;;;;;;5098149;27;20122;-63
2021/12/22 06:01:45;;;;;;;20.08;12.13;;;-2.90;99.90;;;;;;5094792;28;20482;-63
2021/12/22 06:04:11;;;;;;;18.35;12.40;;;-2.90;99.90;;;;;;5098942;27;21412;-63
2021/12/22 06:06:37;;;;;;;20.15;12.60;;;-2.90;99.90;;;;;;5095842;27;20054;-63
2021/12/22 06:09:03;;;;;;;19.42;12.38;;;-2.90;99.90;;;;;;5109397;27;20230;-63
2021/12/22 06:11:29;;;;;;;18.80;13.13;;;-2.90;99.90;;;;;;5096217;28;20044;-63
2021/12/22 06:13:55;;;;;;;21.42;13.40;;;-2.90;99.90;;;;;;5094548;28;20044;-63
2021/12/22 06:16:22;;;;;;;20.38;12.52;;;-2.90;99.90;;;;;;5096128;27;20051;-63
2021/12/22 06:18:54;;;;;;;21.17;13.80;;;-2.90;99.90;;;;;;5127426;27;20042;-63
2021/12/22 06:21:20;;;;;;;18.85;13.38;;;-2.90;99.90;;;;;;5097290;28;20032;-63
2021/12/22 06:23:45;;;;;;;20.25;13.25;;;-2.80;99.90;;;;;;5111581;27;20498;-63
2021/12/22 06:26:12;;;;;;;19.65;12.13;;;-2.50;99.90;;;;;;5099097;28;20414;-63
2021/12/22 06:28:37;;;;;;;19.23;12.95;;;-2.00;99.90;;;;;;5127828;27;20144;-63
2021/12/22 06:31:03;;;;;;;21.27;12.43;;;-2.90;99.90;;;;;;5099675;27;20477;-63
2021/12/22 06:33:29;;;;;;;21.13;12.13;;;-2.90;99.90;;;;;;5095274;28;20044;-63
2021/12/22 06:35:55;;;;;;;20.02;12.45;;;-3.00;99.90;;;;;;5096875;28;20051;-63
2021/12/22 06:38:20;;;;;;;17.45;12.45;;;-3.00;99.90;;;;;;5098950;27;20032;-63
2021/12/22 06:40:46;;;;;;;19.58;10.90;;;-3.00;99.90;;;;;;5098805;27;20084;-63
2021/12/22 06:43:14;;;;;;;15.77;11.23;;;-2.10;99.90;;;;;;5096977;28;20046;-63
2021/12/22 06:45:40;;;;;;;17.40;11.63;;;-3.00;99.90;;;;;;5096364;27;20422;-63
2021/12/22 06:48:05;;;;;;;18.45;12.23;;;-3.00;99.90;;;;;;5097648;28;20049;-63
2021/12/22 06:50:31;;;;;;;15.25;11.07;;;-3.00;99.90;;;;;;5129889;27;20776;-63
2021/12/22 06:52:57;;;;;;;16.83;12.20;;;-3.00;99.90;;;;;;5097729;28;20036;-63
2021/12/22 06:55:22;;;;;;;19.67;11.38;;;-3.00;99.90;;;;;;5126706;27;20046;-63
2021/12/22 06:57:48;;;;;;;18.30;11.70;;;-3.00;99.90;;;;;;5097559;27;20072;-63
2021/12/22 07:00:26;;;;;;;17.48;12.27;;;-3.00;99.90;;;;;;5097188;28;20047;-63
2021/12/22 07:02:53;;;;;;;19.45;11.88;;;-2.90;99.90;;;;;;5122771;27;20058;-63
2021/12/22 07:05:19;;;;;;;24.27;11.60;;;-2.90;99.90;;;;;;5095054;27;20058;-63
2021/12/22 07:07:45;;;;;;;16.70;10.98;;;-2.90;99.90;;;;;;5094430;28;20079;-63
2021/12/22 07:10:12;;;;;;;16.25;11.63;;;-3.00;99.90;;;;;;5099445;28;20047;-63
2021/12/22 07:12:45;;;;;;;19.02;11.68;;;-3.00;99.90;;;;;;5093152;27;20110;-63
2021/12/22 07:15:13;;;;;;;15.02;11.00;;;-3.00;99.90;;;;;;5123103;27;20818;-63
2021/12/22 07:17:40;;;;;;;15.45;10.30;;;-3.00;99.90;;;;;;5092681;27;20036;-63
2021/12/22 07:20:07;;;;;;;17.98;11.60;;;-2.70;99.90;;;;;;5122189;27;20044;-63
2021/12/22 07:22:34;;;;;;;15.38;11.32;;;-2.90;99.90;;;;;;5128668;27;20130;-63
2021/12/22 07:25:00;;;;;;;17.45;11.70;;;-3.00;99.90;;;;;;5090601;28;20074;-63
2021/12/22 07:27:25;;;;;;;16.90;10.73;;;-3.00;99.90;;;;;;5085927;27;20118;-63
2021/12/22 07:29:51;;;;;;;17.52;12.10;;;-3.00;99.90;;;;;;5081920;27;20032;-63
2021/12/22 07:32:17;;;;;;;17.90;11.70;;;-3.00;99.90;;;;;;5082998;28;20089;-63
2021/12/22 07:35:06;;;;;;;22.63;11.35;;;-3.10;99.90;;;;;;5082117;28;20047;-63
2021/12/22 07:37:41;;;;;;;18.77;11.55;;;-3.00;99.90;;;;;;5081123;27;20051;-63
2021/12/22 07:40:09;;;;;;;17.75;12.02;;;-3.00;99.90;;;;;;5082988;28;20058;-63
2021/12/22 07:42:35;;;;;;;19.05;11.45;;;-2.90;99.90;;;;;;5113210;27;20035;-63
2021/12/22 07:45:01;;;;;;;18.33;12.43;;;-3.00;99.90;;;;;;5079210;27;20133;-63
2021/12/22 07:47:27;;;;;;;22.58;12.50;;;-3.00;99.90;;;;;;5076218;28;20490;-63
2021/12/22 07:49:53;;;;;;;17.20;11.05;;;-3.00;99.90;;;;;;5082696;28;20043;-63
2021/12/22 07:52:19;;;;;;;23.15;12.70;;;-3.00;99.90;;;;;;5081644;28;20401;-63
2021/12/22 07:54:44;;;;;;;20.02;11.02;;;-3.00;99.90;;;;;;5114165;27;20460;-63
2021/12/22 07:57:10;;;;;;;20.02;10.73;;;-3.00;99.90;;;;;;5081645;28;20051;-63
2021/12/22 07:59:36;;;;;;;18.27;11.07;;;-3.00;99.90;;;;;;5081006;27;20059;-63
2021/12/22 08:02:02;;;;;;;19.58;12.05;;;-3.00;99.90;;;;;;5079872;28;20516;-63
2021/12/22 08:04:28;;;;;;;20.63;11.50;;;-2.90;99.90;;;;;;5079732;28;20044;-63
2021/12/22 08:06:55;;;;;;;16.92;11.55;;;-3.00;99.90;;;;;;5081368;28;20051;-63
2021/12/22 08:09:25;;;;;;;20.42;11.63;;;-2.50;99.90;;;;;;5082219;28;20040;-63
2021/12/22 08:11:56;;;;;;;16.63;10.90;;;-2.90;99.90;;;;;;5083312;28;20473;-63
2021/12/22 08:14:23;;;;;;;16.70;10.85;;;-2.90;99.90;;;;;;5083224;28;21222;-63
2021/12/22 08:16:50;;;;;;;20.70;11.43;;;-2.90;99.90;;;;;;5086264;28;20067;-63
2021/12/22 08:19:16;;;;;;;23.75;12.63;;;-2.90;99.90;;;;;;5129942;27;20067;-63
2021/12/22 08:21:44;;;;;;;19.98;12.32;;;-2.90;99.90;;;;;;5094238;28;20501;-63
2021/12/22 08:24:10;;;;;;;20.30;12.07;;;-2.90;99.90;;;;;;5095589;28;20039;-63
2021/12/22 08:26:36;;;;;;;18.70;12.50;;;-2.80;99.90;;;;;;5091477;28;20044;-62
2021/12/22 08:29:03;;;;;;;20.05;11.75;;;-2.80;99.90;;;;;;5089695;28;20131;-63
2021/12/22 08:31:28;;;;;;;18.65;11.43;;;-2.70;99.90;;;;;;5090342;28;21540;-63
2021/12/22 08:33:56;;;;;;;22.85;12.32;;;-2.70;99.90;;;;;;5081406;28;20043;-63
2021/12/22 08:39:12;;;;;;;21.38;11.88;;;-2.40;99.90;;;;;;5112842;27;20068;-63
2021/12/22 08:41:40;;;;;;;18.60;12.38;;;-2.50;99.90;;;;;;5079376;28;20494;-63
2021/12/22 08:44:09;;;;;;;20.52;12.20;;;-2.30;99.90;;;;;;5080869;28;20047;-63
2021/12/22 08:46:37;;;;;;;18.40;12.23;;;-2.60;99.90;;;;;;5083178;28;20031;-63
2021/12/22 08:49:05;;;;;;;17.88;11.35;;;-2.50;99.90;;;;;;5082342;28;20071;-62
2021/12/22 08:51:30;;;;;;;18.80;11.80;;;-2.50;99.90;;;;;;5080464;28;20431;-63
2021/12/22 08:53:56;;;;;;;19.50;12.43;;;-2.40;99.90;;;;;;5080339;28;20048;-63
2021/12/22 08:56:22;;;;;;;17.67;12.82;;;-2.30;99.90;;;;;;5079996;28;20820;-63
2021/12/22 08:58:49;;;;;;;20.27;12.82;;;-2.20;99.90;;;;;;5085832;28;21806;-63
2021/12/22 09:01:15;;;;;;;18.35;12.05;;;-2.20;99.90;;;;;;5086527;28;20085;-63
2021/12/22 09:03:41;;;;;;;20.83;12.95;;;-2.10;99.90;;;;;;5085543;28;20545;-63
2021/12/22 09:06:07;;;;;;;23.02;12.38;;;-2.10;99.90;;;;;;5084927;28;20048;-63
2021/12/22 09:08:32;;;;;;;19.15;11.50;;;-2.00;99.90;;;;;;5084150;28;20051;-63
2021/12/22 09:10:58;;;;;;;18.15;11.98;;;-2.00;99.90;;;;;;5081024;28;20051;-63
2021/12/22 09:13:25;;;;;;;20.60;11.88;;;-1.90;99.90;;;;;;5084004;28;20044;-63
2021/12/22 09:15:51;;;;;;;18.77;11.35;;;-1.90;99.90;;;;;;5085333;28;20361;-63
2021/12/22 09:18:17;;;;;;;18.60;12.48;;;-1.90;99.90;;;;;;5083768;27;20036;-63
2021/12/22 09:20:43;;;;;;;19.38;12.20;;;-1.80;99.90;;;;;;5083260;28;20071;-62
2021/12/22 09:23:09;;;;;;;16.58;11.18;;;-1.80;99.90;;;;;;5117892;27;20035;-63
2021/12/22 09:25:35;;;;;;;22.02;12.40;;;-1.70;99.90;;;;;;5121071;27;20093;-63
2021/12/22 09:28:03;;;;;;;18.55;12.10;;;-1.60;99.90;;;;;;5093946;28;20059;-63
2021/12/22 09:30:35;;;;;;;21.90;12.27;;;-1.60;99.90;;;;;;5096723;28;20032;-63
2021/12/22 09:33:07;;;;;;;18.35;11.82;;;-1.50;99.90;;;;;;5098159;28;20052;-63
2021/12/22 09:35:33;;;;;;;20.38;12.23;;;-1.30;99.90;;;;;;5116943;27;20048;-63
2021/12/22 09:37:59;;;;;;;18.17;12.02;;;-1.50;99.90;;;;;;5085242;28;20173;-63
2021/12/22 09:40:25;;;;;;;17.20;10.95;;;-1.50;99.90;;;;;;5085746;27;20035;-63
2021/12/22 09:42:51;;;;;;;21.10;12.50;;;-1.30;99.90;;;;;;5083574;27;20825;-63
2021/12/22 09:45:19;;;;;;;18.52;11.88;;;-1.40;99.90;;;;;;5122984;27;20074;-63
2021/12/22 09:48:03;;;;;;;18.02;10.90;;;-1.40;99.90;;;;;;5086868;27;20078;-63
2021/12/22 09:50:47;;;;;;;18.58;11.93;;;-1.30;99.90;;;;;;5084781;27;20127;-63
2021/12/22 09:53:14;;;;;;;19.02;10.85;;;-1.20;99.90;;;;;;5082460;27;20172;-63
2021/12/22 09:55:40;;;;;;;17.65;11.30;;;-1.20;99.90;;;;;;5085914;27;20039;-63
2021/12/22 09:58:09;;;;;;;17.27;11.43;;;-1.20;99.90;;;;;;5083489;27;20060;-63
2021/12/22 10:00:36;;;;;;;18.08;12.35;;;-0.90;99.90;;;;;;5086071;28;20288;-63
2021/12/22 10:03:05;;;;;;;16.60;11.85;;;-1.10;99.90;;;;;;5089469;28;20036;-63
2021/12/22 10:05:31;;;;;;;19.45;11.07;;;-1.10;99.90;;;;;;5085957;28;20135;-63
2021/12/22 10:08:13;;;;;;;17.05;11.20;;;-1.10;99.90;;;;;;5095334;28;20163;-63
2021/12/22 10:11:01;;;;;;;15.82;10.77;;;-1.10;99.90;;;;;;5099175;28;20031;-63
2021/12/22 10:13:29;;;;;;;16.10;11.07;;;-0.90;99.90;;;;;;5130671;27;20043;-63
2021/12/22 10:15:56;;;;;;;18.02;11.05;;;-0.80;99.90;;;;;;5095822;28;20468;-63
2021/12/22 10:18:28;;;;;;;16.10;10.88;;;-0.70;99.90;;;;;;5097032;28;20031;-63
2021/12/22 10:21:18;;;;;;;16.83;11.18;;;-0.60;99.90;;;;;;5099568;27;20048;-63
2021/12/22 10:23:46;;;;;;;20.85;11.52;;;-0.40;99.90;;;;;;5100537;27;20104;-63
2021/12/22 10:26:16;;;;;;;13.85;10.30;;;-0.30;99.90;;;;;;5099046;28;20039;-63
2021/12/22 10:28:55;;;;;;;16.63;11.30;;;-0.20;99.90;;;;;;5097060;28;20039;-63
2021/12/22 10:31:39;;;;;;;14.15;10.35;;;-0.10;99.90;;;;;;5100457;27;20387;-63
2021/12/22 10:34:10;;;;;;;18.92;11.13;;;-0.10;99.90;;;;;;5097711;28;20656;-60
2021/12/22 10:36:49;;;;;;;14.13;10.45;;;-0.10;99.90;;;;;;5102062;28;20126;-60
2021/12/22 10:39:33;;;;;;;16.60;11.05;;;0.00;99.90;;;;;;5097803;28;20036;-60
2021/12/22 10:42:07;;;;;;;14.07;10.50;;;0.00;99.90;;;;;;5101311;28;20044;-60
2021/12/22 10:44:41;;;;;;;19.08;11.07;;;0.00;99.90;;;;;;5100404;27;20251;-60
2021/12/22 10:49:14;;;;;;;23.58;10.63;;;0.00;99.90;;;;;;5115847;27;20047;-60
2021/12/22 10:50:09;;;;;;;17.67;10.32;;;0.10;99.90;;;;;;5096984;27;20104;-60
2021/12/22 10:52:35;;;;;;;20.05;11.50;;;0.10;99.90;;;;;;5099123;27;20506;-60
2021/12/22 10:55:10;;;;;;;19.00;10.98;;;0.20;99.90;;;;;;5098324;28;20498;-60
2021/12/22 10:57:38;;;;;;;15.75;10.32;;;0.20;99.90;;;;;;5101334;27;20036;-61
2021/12/22 11:00:26;;;;;;;14.65;9.75;;;0.30;99.90;;;;;;5099330;27;21041;-60
2021/12/22 11:03:07;;;;;;;16.55;10.13;;;0.40;99.90;;;;;;5100100;27;20126;-60
2021/12/22 11:05:48;;;;;;;14.77;10.20;;;0.60;99.90;;;;;;5097988;27;20055;-61
2021/12/22 11:08:26;;;;;;;14.07;9.38;;;0.70;99.90;;;;;;5099134;28;20409;-61
2021/12/22 11:10:53;;;;;;;15.60;9.30;;;0.90;99.90;;;;;;5092734;28;20050;-60
2021/12/22 11:13:21;;;;;;;12.45;9.32;;;1.10;99.90;;;;;;5092841;28;20058;-60
2021/12/22 11:15:47;;;;;;;13.40;8.77;;;1.00;99.90;;;;;;5095281;28;20067;-61
2021/12/22 11:18:25;;;;;;;14.52;8.80;;;1.10;99.90;;;;;;5092166;28;20453;-61
2021/12/22 11:21:16;;;;;;;11.70;9.10;;;1.10;99.90;;;;;;5092757;28;20156;-60
2021/12/22 11:23:43;;;;;;;12.25;8.93;;;1.20;99.90;;;;;;5093872;28;20404;-61
2021/12/22 11:26:12;;;;;;;15.13;7.80;;;1.30;99.90;;;;;;5093522;28;20043;-61
2021/12/22 11:28:39;;;;;;;11.55;8.70;;;1.40;99.90;;;;;;5092967;28;20050;-60
2021/12/22 11:31:07;;;;;;;13.77;8.93;;;1.40;99.90;;;;;;5093994;28;20047;-61
2021/12/22 11:33:33;;;;;;;12.50;8.55;;;1.40;99.90;;;;;;5091889;28;20039;-61
2021/12/22 11:36:00;;;;;;;15.02;8.88;;;1.40;99.90;;;;;;5125525;27;20074;-60
2021/12/22 11:38:28;;;;;;;11.75;8.93;;;1.40;99.90;;;;;;5093269;28;20040;-60
2021/12/22 11:41:02;;;;;;;14.45;8.60;;;1.30;99.90;;;;;;5093839;28;20104;-61
2021/12/22 11:43:28;;;;;;;13.45;9.02;;;1.30;99.90;;;;;;5094375;28;20393;-61
2021/12/22 11:45:55;;;;;;;16.58;9.32;;;1.20;99.90;;;;;;5096358;28;20043;-60
2021/12/22 11:48:21;;;;;;;15.10;9.80;;;1.10;99.90;;;;;;5129776;27;20375;-61
2021/12/22 11:50:48;;;;;;;10.82;9.00;;;1.00;99.90;;;;;;5098563;28;20027;-60
2021/12/22 11:53:15;;;;;;;13.25;9.43;;;1.00;99.90;;;;;;5099446;28;20667;-60
2021/12/22 11:55:51;;;;;;;13.02;9.55;;;1.00;99.90;;;;;;5132850;27;20024;-60
2021/12/22 11:58:27;;;;;;;13.00;8.23;;;0.90;99.90;;;;;;5099179;28;20040;-60
2021/12/22 12:00:55;;;;;;;12.88;9.45;;;1.00;99.90;;;;;;5098244;28;20104;-60
2021/12/22 12:03:26;;;;;;;13.73;8.70;;;1.10;99.90;;;;;;5096095;28;20043;-60
2021/12/22 12:06:03;;;;;;;11.70;8.23;;;1.20;99.90;;;;;;5094289;28;20101;-61
2021/12/22 12:08:38;;;;;;;15.13;8.82;;;1.30;99.90;;;;;;5096815;28;20384;-60
2021/12/22 12:11:06;;;;;;;13.02;9.32;;;1.30;99.90;;;;;;5095441;28;20052;-61
2021/12/22 12:13:41;;;;;;;16.58;9.30;;;1.20;99.90;;;;;;5132162;27;20131;-60
2021/12/22 12:22:33;;;;;;;16.63;10.00;;;1.20;99.90;;;;;;5099432;28;20407;-61
2021/12/22 12:25:00;;;;;;;10.85;9.13;;;1.30;99.90;;;;;;5095886;28;20039;-61
2021/12/22 12:27:35;;;;;;;12.27;9.13;;;1.40;99.90;;;;;;5099911;28;20477;-60
2021/12/22 12:30:08;;;;;;;13.43;8.13;;;1.40;99.90;;;;;;5093095;28;20043;-60
2021/12/22 12:32:40;;;;;;;15.50;9.13;;;1.50;99.90;;;;;;5102671;27;20047;-60
2021/12/22 12:35:20;;;;;;;12.88;8.73;;;1.60;99.90;;;;;;5101759;28;20043;-60
2021/12/22 12:38:24;;;;;;;16.23;9.40;;;1.60;99.90;;;;;;5128342;27;20168;-60
2021/12/22 12:41:11;;;;;;;12.48;8.60;;;1.50;99.90;;;;;;5101615;28;20043;-61
2021/12/22 12:43:44;;;;;;;17.70;9.73;;;1.60;99.90;;;;;;5131958;27;20067;-61
2021/12/22 12:46:37;;;;;;;12.15;9.40;;;1.50;99.90;;;;;;5099523;28;20375;-60
2021/12/22 12:49:03;;;;;;;14.68;9.23;;;1.40;99.90;;;;;;5099925;28;20056;-60
2021/12/22 12:51:36;;;;;;;13.00;8.52;;;1.40;99.90;;;;;;5101059;28;20043;-61
2021/12/22 12:54:16;;;;;;;14.85;9.43;;;1.40;99.90;;;;;;5102399;28;20074;-60
2021/12/22 12:56:43;;;;;;;12.73;9.10;;;1.30;99.90;;;;;;5100366;28;20050;-60
2021/12/22 12:59:11;;;;;;;13.55;8.75;;;1.20;99.90;;;;;;5132179;27;20036;-60